Latest Coastal Weather Observations for Samuel Hill

IDQ60701

Issued at 3:15 pm EST Sunday 26 October 2014 (issued every 10 minutes, with the page automatically refreshed every 10 minutes)

About coastal observations | Map of coastal stations | Coastal observations for QLD | Marine services | Other Formats
Station Details ID: 033308 Name: SAMUEL HILL AERO Lat: -22.74 Lon: 150.66 Height: 31.0 m
Data from the previous 72 hours. | See also: Recent months at Samuel Hill
Date/Time
EST
Temp

°C
Wind Pressure Rain
since 9am
mm
Weather Cloud Vis
km
Sea
Height
m
Swell
Dir
 
Speed
knots
Gust
knots
hPa Trend Height
m
Period
s
Dir
26/03:00pm 29.0 N 8 13 1013.6 - 0.0 - - 10 - - - -
26/02:30pm 29.5 NW 9 14 1013.7 - 0.0 - - 10 - - - -
26/02:00pm 29.7 NNW 9 13 1014.1 - 0.0 - - 10 - - - -
26/01:30pm 29.3 NNW 9 13 1014.7 - 0.0 - - 10 - - - -
26/01:00pm 29.9 NNW 7 13 1015.1 - 0.0 - - 10 - - - -
26/12:30pm 29.9 N 8 14 1015.4 - 0.0 - - 10 - - - -
26/12:00pm 30.0 N 7 13 1016.0 - 0.0 - - 10 - - - -
26/11:30am 29.2 NNE 6 12 1016.5 - 0.0 - - 10 - - - -
26/11:00am 29.2 W 4 7 1017.0 - 0.0 - - 10 - - - -
26/10:30am 28.5 NNE 6 10 1017.4 - 0.0 - - 10 - - - -
26/10:00am 27.3 NNE 6 11 1017.8 - 0.0 - - 10 - - - -
26/09:30am 26.6 NNW 5 8 1018.1 - 0.0 - - 10 - - - -
26/09:00am 25.5 N 6 9 1018.4 - 0.0 - - 10 - - - -
26/08:30am 24.6 N 6 11 1018.5 - 0.0 - - 10 - - - -
26/08:00am 23.8 NNW 7 11 1018.6 - 0.0 - - 10 - - - -
26/07:30am 22.4 N 4 5 1018.7 - 0.0 - - 10 - - - -
26/07:00am 19.2 CALM 0 0 1018.5 - 0.0 - - 10 - - - -
26/06:30am 16.1 CALM 0 0 1018.5 - 0.0 - - 10 - - - -
26/06:00am 13.9 CALM 0 0 1018.2 - 0.0 - - 10 - - - -
26/05:30am 12.3 CALM 0 0 1017.8 - 0.0 - Partly cloudy 10 - - - -
26/05:00am 12.0 CALM 0 0 1017.6 - 0.0 - Partly cloudy 10 - - - -
26/04:30am 11.8 CALM 0 0 1017.3 - 0.0 - Partly cloudy 10 - - - -
26/04:00am 11.8 CALM 0 0 1017.1 - 0.0 - - 10 - - - -
26/03:30am 11.9 CALM 0 0 1016.9 - 0.0 - Partly cloudy 10 - - - -
26/03:00am 11.9 CALM 0 0 1016.9 - 0.0 - Mostly clear 10 - - - -
26/02:30am 11.9 CALM 0 0 1017.0 - 0.0 - Partly cloudy 10 - - - -
26/02:00am 11.9 CALM 0 0 1017.1 - 0.0 - - 10 - - - -
26/01:30am 12.4 CALM 0 0 1017.3 - 0.0 - - 10 - - - -
26/01:00am 12.4 CALM 0 0 1017.7 - 0.0 - - 10 - - - -
26/12:30am 12.7 CALM 0 0 1018.0 - 0.0 - - 10 - - - -
26/12:00am 12.6 W 0 0 1018.2 - 0.0 - - 10 - - - -
 
Date/Time
EST
Temp

°C
Wind Pressure Rain
since 9am
mm
Weather Cloud Vis
km
Sea
Height
m
Swell
Dir
 
Speed
knots
Gust
knots
hPa Trend Height
m
Period
s
Dir
25/11:30pm 13.0 CALM 0 0 1018.5 - 0.0 - - 10 - - - -
25/11:00pm 13.2 CALM 0 0 1018.8 - 0.0 - - 10 - - - -
25/10:30pm 13.5 CALM 0 0 1019.0 - 0.0 - - 10 - - - -
25/10:00pm 13.8 CALM 0 0 1019.1 - 0.0 - - 10 - - - -
25/09:30pm 14.2 CALM 0 0 1019.3 - 0.0 - - 10 - - - -
25/09:00pm 14.9 CALM 0 3 1019.3 - 0.0 - - 10 - - - -
25/08:30pm 15.8 CALM 0 0 1019.2 - 0.0 - - 10 - - - -
25/08:00pm 16.5 CALM 0 0 1018.9 - 0.0 - - 10 - - - -
25/07:30pm 17.2 NNE 1 4 1018.7 - 0.0 - - 10 - - - -
25/07:00pm 19.1 N 3 3 1018.4 - 0.0 - - 10 - - - -
25/06:30pm 20.4 NE 4 5 1018.1 - 0.0 - - 10 - - - -
25/06:00pm 21.8 ENE 5 7 1017.8 - 0.0 - - 10 - - - -
25/05:30pm 23.0 ENE 7 10 1017.4 - 0.0 - - 10 - - - -
25/05:00pm 24.0 ENE 9 12 1017.1 - 0.0 - - 10 - - - -
25/04:30pm 25.3 ENE 7 11 1017.0 - 0.0 - - 10 - - - -
25/04:00pm 25.7 E 7 10 1016.9 - 0.0 - - 10 - - - -
25/03:30pm 26.2 E 8 11 1016.8 - 0.0 - - 10 - - - -
25/03:00pm 26.5 E 8 12 1016.8 - 0.0 - - 10 - - - -
25/02:30pm 27.3 ENE 8 12 1017.0 - 0.0 - - 10 - - - -
25/02:00pm 27.3 E 7 12 1017.3 - 0.0 - - 10 - - - -
25/01:30pm 27.1 E 10 12 1017.6 - 0.0 - - 10 - - - -
25/01:00pm 27.8 ESE 7 12 1017.8 - 0.0 - - 10 - - - -
25/12:30pm 27.6 E 7 12 1018.3 - 0.0 - - 10 - - - -
25/12:00pm 28.1 NE 7 14 1018.8 - 0.0 - Mostly clear 10 - - - -
25/11:30am 27.8 SE 8 11 1019.4 - 0.0 - - 10 - - - -
25/11:00am 27.4 NNE 5 9 1019.8 - 0.0 - - 10 - - - -
25/10:30am 26.9 E 7 11 1020.3 - 0.0 - Partly cloudy 10 - - - -
25/10:00am 27.1 ENE 6 11 1020.8 - 0.0 - Partly cloudy 10 - - - -
25/09:30am 24.7 NE 6 10 1021.0 - 0.0 - Partly cloudy 10 - - - -
25/09:00am 25.4 ENE 5 9 1021.1 - 0.0 - Mostly cloudy 10 - - - -
25/08:30am 24.9 E 5 9 1021.0 - 0.0 - Partly cloudy 10 - - - -
25/08:00am 23.9 ENE 4 6 1020.9 - 0.0 - - 10 - - - -
25/07:30am 21.7 SSE 3 5 1020.7 - 0.0 - - 10 - - - -
25/07:00am 18.9 CALM 0 2 1020.6 - 0.0 - Partly cloudy 10 - - - -
25/06:30am 15.8 CALM 0 0 1020.2 - 0.0 - Partly cloudy 10 - - - -
25/06:00am 12.4 CALM 0 0 1019.9 - 0.0 - - 10 - - - -
25/05:30am 10.6 CALM 0 0 1019.7 - 0.0 - - 10 - - - -
25/05:00am 10.8 CALM 0 0 1019.5 - 0.0 - - 10 - - - -
25/04:30am 11.1 CALM 0 0 1019.4 - 0.0 - - 10 - - - -
25/04:00am 11.0 CALM 0 0 1019.4 - 0.0 - - 10 - - - -
25/03:30am 11.2 CALM 0 0 1019.4 - 0.0 - - 10 - - - -
25/03:00am 11.8 CALM 0 0 1019.3 - 0.0 - - 10 - - - -
25/02:30am 11.6 CALM 0 0 1019.2 - 0.0 - - 10 - - - -
25/02:00am 12.1 CALM 0 0 1019.3 - 0.0 - - 10 - - - -
25/01:30am 12.2 CALM 0 0 1019.9 - 0.0 - - 10 - - - -
25/01:00am 12.5 CALM 0 0 1020.3 - 0.0 - - 10 - - - -
25/12:30am 12.7 CALM 0 0 1020.6 - 0.0 - Partly cloudy 10 - - - -
25/12:00am 13.5 CALM 0 0 1020.8 - 0.0 - - 10 - - - -
 
Date/Time
EST
Temp

°C
Wind Pressure Rain
since 9am
mm
Weather Cloud Vis
km
Sea
Height
m
Swell
Dir
 
Speed
knots
Gust
knots
hPa Trend Height
m
Period
s
Dir
24/11:30pm 13.5 CALM 0 0 1021.1 - 0.0 - - 10 - - - -
24/11:00pm 13.6 CALM 0 0 1021.2 - 0.0 - - 10 - - - -
24/10:30pm 14.4 CALM 0 0 1021.6 - 0.0 - Partly cloudy 10 - - - -
24/10:00pm 14.2 CALM 0 0 1021.6 - 0.0 - Partly cloudy 10 - - - -
24/09:30pm 14.6 CALM 0 1 1021.5 - 0.0 - - 10 - - - -
24/09:00pm 15.1 CALM 0 0 1021.4 - 0.0 - - 10 - - - -
24/08:30pm 15.5 CALM 0 0 1021.2 - 0.0 - Partly cloudy 10 - - - -
24/08:00pm 16.2 CALM 0 0 1021.0 - 0.0 - Partly cloudy 10 - - - -
24/07:30pm 16.8 CALM 0 0 1020.5 - 0.0 - - 10 - - - -
24/07:00pm 18.5 CALM 0 0 1020.3 - 0.0 - - 10 - - - -
24/06:30pm 20.2 CALM 0 0 1019.8 - 0.0 - - 10 - - - -
24/06:00pm 21.2 E 5 8 1019.4 - 0.0 - - 10 - - - -
24/05:30pm 22.5 E 6 9 1019.0 - 0.0 - - 10 - - - -
24/05:00pm 23.3 E 7 12 1018.6 - 0.0 - - 10 - - - -
24/04:30pm 23.7 ESE 9 13 1018.5 - 0.0 - - 10 - - - -
24/04:00pm 24.5 ESE 8 13 1018.5 - 0.0 - - 10 - - - -
24/03:30pm 25.8 E 8 13 1018.5 - 0.0 - - 10 - - - -
24/03:00pm 25.7 E 8 14 1018.6 - 0.0 - - 10 - - - -
24/02:30pm 25.6 E 8 13 1018.9 - 0.0 - - 10 - - - -
24/02:00pm 25.6 SE 9 14 1019.2 - 0.0 - - 10 - - - -
24/01:30pm 26.1 SE 8 12 1019.5 - 0.0 - - 10 - - - -
24/01:00pm 26.0 ESE 9 17 1019.7 - 0.0 - - 10 - - - -
24/12:30pm 26.8 ESE 7 13 1020.0 - 0.0 - - 10 - - - -
24/12:00pm 25.7 SE 9 13 1020.3 - 0.0 - Mostly clear 10 - - - -
24/11:30am 25.7 SE 7 13 1020.6 - 0.0 - - 10 - - - -
24/11:00am 25.3 SE 8 15 1020.9 - 0.0 - - 10 - - - -
24/10:30am 25.4 SSE 6 9 1021.1 - 0.0 - Partly cloudy 10 - - - -
24/10:00am 25.0 ESE 7 15 1021.2 - 0.0 - Partly cloudy 10 - - - -
24/09:30am 24.9 E 7 12 1021.2 - 0.0 - Partly cloudy 10 - - - -
24/09:00am 24.8 NE 6 11 1021.2 - 0.0 - Mostly clear 10 - - - -
24/08:30am 24.0 ESE 4 8 1021.2 - 0.0 - Partly cloudy 10 - - - -
24/08:00am 22.1 E 3 6 1021.1 - 0.0 - Partly cloudy 10 - - - -
24/07:30am 20.5 S 1 3 1020.9 - 0.0 - - 10 - - - -
24/07:00am 17.2 CALM 0 3 1021.0 - 0.0 - - 10 - - - -
24/06:30am 14.2 ESE 1 3 1020.7 - 0.0 - - 10 - - - -
24/06:00am 10.8 CALM 0 0 1020.2 - 0.0 - - 10 - - - -
24/05:30am 9.1 CALM 0 0 1020.1 - 0.0 - - 10 - - - -
24/05:00am 9.0 CALM 0 0 1019.6 - 0.0 - - 10 - - - -
24/04:30am 9.3 CALM 0 0 1019.4 - 0.0 - - 10 - - - -
24/04:00am 9.3 CALM 0 0 1019.3 - 0.0 - - 10 - - - -
24/03:30am 9.3 CALM 0 0 1019.3 - 0.0 - - 10 - - - -
24/03:00am 9.7 CALM 0 0 1019.2 - 0.0 - - 10 - - - -
24/02:30am 10.0 CALM 0 0 1019.1 - 0.0 - - 10 - - - -
24/02:00am 10.3 CALM 0 0 1019.3 - 0.0 - - 10 - - - -
24/01:30am 10.6 CALM 0 0 1020.0 - 0.0 - - 10 - - - -
24/01:00am 11.0 CALM 0 0 1020.5 - 0.0 - - 10 - - - -
24/12:30am 11.5 CALM 0 0 1020.6 - 0.0 - - 10 - - - -
24/12:00am 11.4 CALM 0 2 1020.6 - 0.0 - - 10 - - - -
 
Date/Time
EST
Temp

°C
Wind Pressure Rain
since 9am
mm
Weather Cloud Vis
km
Sea
Height
m
Swell
Dir
 
Speed
knots
Gust
knots
hPa Trend Height
m
Period
s
Dir
23/11:30pm 12.4 CALM 0 0 1020.7 - 0.0 - - 10 - - - -
23/11:00pm 12.1 CALM 0 0 1021.0 - 0.0 - - 10 - - - -
23/10:30pm 12.5 W 1 3 1021.1 - 0.0 - - 10 - - - -
23/10:00pm 12.9 CALM 0 0 1021.0 - 0.0 - - 10 - - - -
23/09:30pm 13.3 CALM 0 0 1020.7 - 0.0 - - 10 - - - -
23/09:00pm 14.2 CALM 0 0 1020.7 - 0.0 - - 10 - - - -
23/08:30pm 14.5 CALM 0 3 1020.3 - 0.0 - - 10 - - - -
23/08:00pm 15.7 CALM 0 0 1019.8 - 0.0 - - 10 - - - -
23/07:30pm 16.5 CALM 0 3 1019.4 - 0.0 - - 10 - - - -
23/07:00pm 17.9 E 1 3 1019.0 - 0.0 - - 10 - - - -
23/06:30pm 19.6 E 5 6 1018.8 - 0.0 - - 10 - - - -
23/06:00pm 21.0 E 6 9 1018.6 - 0.0 - - 10 - - - -
23/05:30pm 22.2 ENE 6 12 1018.4 - 0.0 - - 10 - - - -
23/05:00pm 23.0 ENE 7 11 1018.1 - 0.0 - - 10 - - - -
23/04:30pm 23.7 ENE 9 13 1017.8 - 0.0 - - 10 - - - -
23/04:00pm 24.6 E 5 9 1017.6 - 0.0 - - 10 - - - -
23/03:30pm 23.9 ESE 9 14 1017.8 - 0.0 - Partly cloudy 10 - - - -

Other Formats:

Comma delimited format used in spreadsheet applications
http://www.bom.gov.au/fwo/IDQ60701/IDQ60701.94370.axf

JavaScript Object Notation format (JSON) in row-major order
http://www.bom.gov.au/fwo/IDQ60701/IDQ60701.94370.json